Time;durP1;ratioP1;P1;durP2;ratioP2;P2;SDS_P1;SDS_P2;PMS_P1;PMS_P2;Temp;Humidity;BMP_temperature;BMP_pressure;BME280_temperature;BME280_humidity;BME280_pressure;Samples;Min_cycle;Max_cycle;Signal;HPM_P1;HPM_P2
2024/02/05 00:00:41;;;;;;;;;;;;;;;;;;5093083;28;19915;-88
2024/02/05 00:03:07;;;;;;;;;;;;;;;;;;5114650;28;19923;-88
2024/02/05 00:05:32;;;;;;;;;;;;;;;;;;5113144;28;20445;-88
2024/02/05 00:07:58;;;;;;;;;;;;;;;;;;5113630;28;20376;-89
2024/02/05 00:10:24;;;;;;;;;;;;;;;;;;5111315;28;19912;-89
2024/02/05 00:12:50;;;;;;;;;;;;;;;;;;5113791;28;20357;-87
2024/02/05 00:15:16;;;;;;;;;;;;;;;;;;5112434;27;19916;-88
2024/02/05 00:17:43;;;;;;;;;;;;;;;;;;5112570;28;19964;-85
2024/02/05 00:20:09;;;;;;;;;;;;;;;;;;5090315;28;20370;-87
2024/02/05 00:22:35;;;;;;;;;;;;;;;;;;5110932;28;20039;-87
2024/02/05 00:25:01;;;;;;;;;;;;;;;;;;5115403;28;19907;-88
2024/02/05 00:27:26;;;;;;;;;;;;;;;;;;5111367;27;20023;-89
2024/02/05 00:29:52;;;;;;;;;;;;;;;;;;5110396;28;19935;-87
2024/02/05 00:32:18;;;;;;;;;;;;;;;;;;5112042;28;19925;-88
2024/02/05 00:34:44;;;;;;;;;;;;;;;;;;5114561;28;20374;-87
2024/02/05 00:37:10;;;;;;;;;;;;;;;;;;5112936;28;20323;-87
2024/02/05 00:39:36;;;;;;;;;;;;;;;;;;5113083;28;19919;-86
2024/02/05 00:42:02;;;;;;;;;;;;;;;;;;5111725;27;19919;-87
2024/02/05 00:44:27;;;;;;;;;;;;;;;;;;5112055;28;19963;-87
2024/02/05 00:46:53;;;;;;;;;;;;;;;;;;5107606;27;19916;-87
2024/02/05 00:49:19;;;;;;;;;;;;;;;;;;5112375;28;20345;-89
2024/02/05 00:51:45;;;;;;;;;;;;;;;;;;5109608;27;19923;-87
2024/02/05 00:54:11;;;;;;;;;;;;;;;;;;5118222;27;19965;-87
2024/02/05 00:56:37;;;;;;;;;;;;;;;;;;5113849;28;19968;-87
2024/02/05 00:59:04;;;;;;;;;;;;;;;;;;5114667;28;19911;-89
2024/02/05 01:01:30;;;;;;;;;;;;;;;;;;5108572;28;19965;-88
2024/02/05 01:03:56;;;;;;;;;;;;;;;;;;5107304;28;19912;-86
2024/02/05 01:06:22;;;;;;;;;;;;;;;;;;5113649;28;19912;-89
2024/02/05 01:08:48;;;;;;;;;;;;;;;;;;5113712;28;20342;-89
2024/02/05 01:11:15;;;;;;;;;;;;;;;;;;5112777;28;19919;-88
2024/02/05 01:13:41;;;;;;;;;;;;;;;;;;5102139;28;19957;-89
2024/02/05 01:16:07;;;;;;;;;;;;;;;;;;5108278;28;19916;-88
2024/02/05 01:18:33;;;;;;;;;;;;;;;;;;5114840;28;19919;-89
2024/02/05 01:20:59;;;;;;;;;;;;;;;;;;5113929;27;19912;-90
2024/02/05 01:23:24;;;;;;;;;;;;;;;;;;5110527;28;19959;-90
2024/02/05 01:25:50;;;;;;;;;;;;;;;;;;5112674;27;19916;-90
2024/02/05 01:28:16;;;;;;;;;;;;;;;;;;5094943;28;19912;-89
2024/02/05 01:30:43;;;;;;;;;;;;;;;;;;5115659;27;20002;-90
2024/02/05 01:33:09;;;;;;;;;;;;;;;;;;5114997;28;19935;-88
2024/02/05 01:35:35;;;;;;;;;;;;;;;;;;5115049;28;20450;-88
2024/02/05 01:38:00;;;;;;;;;;;;;;;;;;5111152;27;20450;-89
2024/02/05 01:40:26;;;;;;;;;;;;;;;;;;5104164;28;20375;-90
2024/02/05 01:42:52;;;;;;;;;;;;;;;;;;5111699;28;20267;-89
2024/02/05 01:45:18;;;;;;;;;;;;;;;;;;5096360;28;19931;-89
2024/02/05 01:47:44;;;;;;;;;;;;;;;;;;5113902;27;19912;-88
2024/02/05 01:50:10;;;;;;;;;;;;;;;;;;5106971;27;19930;-87
2024/02/05 01:52:36;;;;;;;;;;;;;;;;;;5113554;27;20335;-89
2024/02/05 01:55:01;;;;;;;;;;;;;;;;;;5114533;28;19912;-90
2024/02/05 01:57:27;;;;;;;;;;;;;;;;;;5093755;28;19939;-87
2024/02/05 01:59:53;;;;;;;;;;;;;;;;;;5114048;27;19941;-89
2024/02/05 02:02:19;;;;;;;;;;;;;;;;;;5096684;27;19911;-90
2024/02/05 02:04:45;;;;;;;;;;;;;;;;;;5094395;28;20773;-89
2024/02/05 02:07:11;;;;;;;;;;;;;;;;;;5114673;27;19912;-91
2024/02/05 02:09:37;;;;;;;;;;;;;;;;;;5114314;27;19915;-89
2024/02/05 02:12:03;;;;;;;;;;;;;;;;;;5112605;28;19912;-89
2024/02/05 02:14:29;;;;;;;;;;;;;;;;;;5117370;28;19959;-90
2024/02/05 02:16:55;;;;;;;;;;;;;;;;;;5113306;27;19915;-90
2024/02/05 02:19:21;;;;;;;;;;;;;;;;;;5112845;28;19912;-89
2024/02/05 02:21:47;;;;;;;;;;;;;;;;;;5109263;27;20295;-89
2024/02/05 02:24:13;;;;;;;;;;;;;;;;;;5115357;28;19912;-91
2024/02/05 02:26:38;;;;;;;;;;;;;;;;;;5112879;27;19912;-89
2024/02/05 02:29:04;;;;;;;;;;;;;;;;;;5114888;28;19918;-90
2024/02/05 02:31:30;;;;;;;;;;;;;;;;;;5105421;27;19923;-90
2024/02/05 02:33:56;;;;;;;;;;;;;;;;;;5111710;28;19926;-91
2024/02/05 02:36:22;;;;;;;;;;;;;;;;;;5114204;28;19920;-90
2024/02/05 02:38:48;;;;;;;;;;;;;;;;;;5115958;27;19915;-89
2024/02/05 02:41:14;;;;;;;;;;;;;;;;;;5113205;28;20421;-89
2024/02/05 02:43:39;;;;;;;;;;;;;;;;;;5101821;28;20308;-89
2024/02/05 02:46:05;;;;;;;;;;;;;;;;;;5113056;28;19912;-91
2024/02/05 02:48:31;;;;;;;;;;;;;;;;;;5114246;28;19922;-89
2024/02/05 02:50:57;;;;;;;;;;;;;;;;;;5112177;28;19924;-87
2024/02/05 02:53:23;;;;;;;;;;;;;;;;;;5116674;27;19920;-89
2024/02/05 02:55:50;;;;;;;;;;;;;;;;;;5113434;28;19962;-88
2024/02/05 02:58:16;;;;;;;;;;;;;;;;;;5118125;28;19912;-90
2024/02/05 03:00:42;;;;;;;;;;;;;;;;;;5110705;27;19911;-90
2024/02/05 03:03:08;;;;;;;;;;;;;;;;;;5111773;27;19916;-89
2024/02/05 03:05:34;;;;;;;;;;;;;;;;;;5098579;28;19941;-88
2024/02/05 03:08:00;;;;;;;;;;;;;;;;;;5111116;28;19912;-89
2024/02/05 03:10:25;;;;;;;;;;;;;;;;;;5114440;28;19916;-89
2024/02/05 03:12:51;;;;;;;;;;;;;;;;;;5113517;27;19915;-89
2024/02/05 03:15:19;;;;;;;;;;;;;;;;;;5093507;28;19951;-88
2024/02/05 03:17:45;;;;;;;;;;;;;;;;;;5109924;28;20387;-90
2024/02/05 03:20:11;;;;;;;;;;;;;;;;;;5115538;28;19951;-89
2024/02/05 03:22:37;;;;;;;;;;;;;;;;;;5115458;28;19916;-88
2024/02/05 03:25:02;;;;;;;;;;;;;;;;;;5113588;28;19999;-88
2024/02/05 03:27:29;;;;;;;;;;;;;;;;;;5093253;28;20768;-89
2024/02/05 03:29:55;;;;;;;;;;;;;;;;;;5110632;27;19919;-90
2024/02/05 03:32:21;;;;;;;;;;;;;;;;;;5112955;28;20251;-89
2024/02/05 03:34:46;;;;;;;;;;;;;;;;;;5114865;27;19920;-90
2024/02/05 03:37:12;;;;;;;;;;;;;;;;;;5107671;28;19965;-88
2024/02/05 03:39:38;;;;;;;;;;;;;;;;;;5108306;28;19958;-90
2024/02/05 03:42:04;;;;;;;;;;;;;;;;;;5114938;28;19911;-90
2024/02/05 03:44:30;;;;;;;;;;;;;;;;;;5113067;28;19912;-90
2024/02/05 03:46:56;;;;;;;;;;;;;;;;;;5112413;28;19912;-90
2024/02/05 03:49:22;;;;;;;;;;;;;;;;;;5112675;28;19992;-89
2024/02/05 03:51:48;;;;;;;;;;;;;;;;;;5112134;28;19920;-88
2024/02/05 03:54:14;;;;;;;;;;;;;;;;;;5116614;28;19939;-90
2024/02/05 03:56:42;;;;;;;;;;;;;;;;;;5116904;28;19930;-90
2024/02/05 03:59:09;;;;;;;;;;;;;;;;;;5107945;28;19912;-90
2024/02/05 04:01:36;;;;;;;;;;;;;;;;;;5106217;28;19966;-89
2024/02/05 04:04:02;;;;;;;;;;;;;;;;;;5113329;28;19911;-88
2024/02/05 04:06:28;;;;;;;;;;;;;;;;;;5115326;28;19920;-91
2024/02/05 04:08:53;;;;;;;;;;;;;;;;;;5111427;28;19942;-90
2024/02/05 04:11:19;;;;;;;;;;;;;;;;;;5113055;28;19924;-91
2024/02/05 04:13:46;;;;;;;;;;;;;;;;;;5098487;28;19926;-90
2024/02/05 04:16:11;;;;;;;;;;;;;;;;;;5097984;28;19918;-92
2024/02/05 04:18:37;;;;;;;;;;;;;;;;;;5105045;28;19915;-91
2024/02/05 04:21:03;;;;;;;;;;;;;;;;;;5117102;28;19956;-92
2024/02/05 04:23:29;;;;;;;;;;;;;;;;;;5108978;28;20001;-91
2024/02/05 04:25:55;;;;;;;;;;;;;;;;;;5103504;28;19959;-90
2024/02/05 04:28:21;;;;;;;;;;;;;;;;;;5086225;28;19965;-93
2024/02/05 04:30:47;;;;;;;;;;;;;;;;;;5111553;28;20018;-92
2024/02/05 04:33:13;;;;;;;;;;;;;;;;;;5114693;28;19915;-91
2024/02/05 04:35:39;;;;;;;;;;;;;;;;;;5114285;28;19930;-91
2024/02/05 04:38:04;;;;;;;;;;;;;;;;;;5126917;28;19918;-90
2024/02/05 04:40:30;;;;;;;;;;;;;;;;;;5115197;28;19908;-88
2024/02/05 04:42:57;;;;;;;;;;;;;;;;;;5108059;28;20330;-90
2024/02/05 04:45:22;;;;;;;;;;;;;;;;;;5091886;28;21537;-89
2024/02/05 04:47:48;;;;;;;;;;;;;;;;;;5112763;28;19909;-90
2024/02/05 04:50:14;;;;;;;;;;;;;;;;;;5116313;28;19919;-91
2024/02/05 04:52:40;;;;;;;;;;;;;;;;;;5115529;27;19915;-91
2024/02/05 04:55:06;;;;;;;;;;;;;;;;;;5114294;27;19966;-90
2024/02/05 04:57:32;;;;;;;;;;;;;;;;;;5111651;27;20835;-91
2024/02/05 04:59:58;;;;;;;;;;;;;;;;;;5115635;28;20373;-89
2024/02/05 05:02:24;;;;;;;;;;;;;;;;;;5117720;28;19918;-93
2024/02/05 05:04:50;;;;;;;;;;;;;;;;;;5118159;27;19955;-91
2024/02/05 05:07:16;;;;;;;;;;;;;;;;;;5125888;27;19911;-90
2024/02/05 05:09:42;;;;;;;;;;;;;;;;;;5117803;27;19907;-90
2024/02/05 05:12:08;;;;;;;;;;;;;;;;;;5118937;27;19912;-90
2024/02/05 05:14:34;;;;;;;;;;;;;;;;;;5116976;28;19964;-91
2024/02/05 05:17:00;;;;;;;;;;;;;;;;;;5110156;27;19908;-90
2024/02/05 05:19:25;;;;;;;;;;;;;;;;;;5111193;27;19971;-89
2024/02/05 05:21:51;;;;;;;;;;;;;;;;;;5107310;28;19908;-90
2024/02/05 05:24:17;;;;;;;;;;;;;;;;;;5111173;28;20216;-87
2024/02/05 05:26:43;;;;;;;;;;;;;;;;;;5115736;27;19947;-90
2024/02/05 05:29:09;;;;;;;;;;;;;;;;;;5113446;28;19919;-89
2024/02/05 05:31:35;;;;;;;;;;;;;;;;;;5108050;27;19924;-90
2024/02/05 05:34:01;;;;;;;;;;;;;;;;;;5089562;28;19916;-89
2024/02/05 05:36:27;;;;;;;;;;;;;;;;;;5111187;28;20378;-91
2024/02/05 05:38:53;;;;;;;;;;;;;;;;;;5111778;28;19911;-89
2024/02/05 05:41:19;;;;;;;;;;;;;;;;;;5114898;27;19912;-90
2024/02/05 05:43:45;;;;;;;;;;;;;;;;;;5113285;27;19925;-88
2024/02/05 05:46:11;;;;;;;;;;;;;;;;;;5109905;27;20147;-89
2024/02/05 05:48:36;;;;;;;;;;;;;;;;;;5110565;28;19918;-91
2024/02/05 05:51:02;;;;;;;;;;;;;;;;;;5113990;27;19916;-90
2024/02/05 05:53:28;;;;;;;;;;;;;;;;;;5111733;27;19912;-91
2024/02/05 05:55:54;;;;;;;;;;;;;;;;;;5116483;27;20366;-91
2024/02/05 05:58:21;;;;;;;;;;;;;;;;;;5104726;27;20282;-92
2024/02/05 06:00:47;;;;;;;;;;;;;;;;;;5116163;27;19916;-88
2024/02/05 06:03:15;;;;;;;;;;;;;;;;;;5112920;27;19912;-91
2024/02/05 06:05:42;;;;;;;;;;;;;;;;;;5112766;27;19923;-92
2024/02/05 06:08:10;;;;;;;;;;;;;;;;;;5117793;27;19912;-91
2024/02/05 06:10:36;;;;;;;;;;;;;;;;;;5112428;27;19975;-92
2024/02/05 06:13:03;;;;;;;;;;;;;;;;;;5118083;28;19919;-89
2024/02/05 06:15:29;;;;;;;;;;;;;;;;;;5115260;28;19920;-90
2024/02/05 06:17:55;;;;;;;;;;;;;;;;;;5110884;27;20022;-93
2024/02/05 06:20:20;;;;;;;;;;;;;;;;;;5112021;27;19919;-91
2024/02/05 06:22:46;;;;;;;;;;;;;;;;;;5107843;28;19964;-90
2024/02/05 06:25:12;;;;;;;;;;;;;;;;;;5103812;28;20331;-91
2024/02/05 06:27:38;;;;;;;;;;;;;;;;;;5108308;28;19908;-90
2024/02/05 06:30:04;;;;;;;;;;;;;;;;;;5106639;28;19911;-90
2024/02/05 06:32:30;;;;;;;;;;;;;;;;;;5109301;27;19918;-91
2024/02/05 06:34:56;;;;;;;;;;;;;;;;;;5109193;27;19920;-90
2024/02/05 06:37:21;;;;;;;;;;;;;;;;;;5118419;27;19912;-90
2024/02/05 06:39:47;;;;;;;;;;;;;;;;;;5112437;28;20385;-89
2024/02/05 06:42:13;;;;;;;;;;;;;;;;;;5105674;28;19939;-91
2024/02/05 06:44:41;;;;;;;;;;;;;;;;;;5115442;28;19920;-92
2024/02/05 06:47:07;;;;;;;;;;;;;;;;;;5101294;28;19911;-92
2024/02/05 06:49:33;;;;;;;;;;;;;;;;;;5116552;28;20280;-91
2024/02/05 06:51:59;;;;;;;;;;;;;;;;;;5115799;28;19973;-91
2024/02/05 06:54:25;;;;;;;;;;;;;;;;;;5117578;28;20415;-91
2024/02/05 06:56:51;;;;;;;;;;;;;;;;;;5117645;28;19908;-91
2024/02/05 06:59:17;;;;;;;;;;;;;;;;;;5111082;28;19908;-91
2024/02/05 07:01:43;;;;;;;;;;;;;;;;;;5112902;28;19909;-90
2024/02/05 07:04:08;;;;;;;;;;;;;;;;;;5101990;27;19942;-86
2024/02/05 07:06:35;;;;;;;;;;;;;;;;;;5121347;27;19912;-88
2024/02/05 07:09:01;;;;;;;;;;;;;;;;;;5117634;27;19911;-86
2024/02/05 07:11:26;;;;;;;;;;;;;;;;;;5111810;27;20376;-89
2024/02/05 07:13:52;;;;;;;;;;;;;;;;;;5113212;27;20497;-88
2024/02/05 07:16:18;;;;;;;;;;;;;;;;;;5104891;28;19912;-90
2024/02/05 07:18:46;;;;;;;;;;;;;;;;;;5111168;28;19918;-88
2024/02/05 07:21:12;;;;;;;;;;;;;;;;;;5106786;28;19922;-90
2024/02/05 07:23:38;;;;;;;;;;;;;;;;;;5112022;27;20018;-88
2024/02/05 07:26:04;;;;;;;;;;;;;;;;;;5115182;27;19998;-87
2024/02/05 07:28:30;;;;;;;;;;;;;;;;;;5103959;28;19915;-89
2024/02/05 07:30:56;;;;;;;;;;;;;;;;;;5099990;28;19916;-88
2024/02/05 07:33:21;;;;;;;;;;;;;;;;;;5086591;28;19931;-89
2024/02/05 07:35:47;;;;;;;;;;;;;;;;;;5104526;28;20015;-88
2024/02/05 07:38:19;;;;;;;;;;;;;;;;;;5105892;28;19912;-88
2024/02/05 07:40:45;;;;;;;;;;;;;;;;;;5086116;28;19919;-88
2024/02/05 07:43:11;;;;;;;;;;;;;;;;;;5099200;28;20431;-87
2024/02/05 07:45:36;;;;;;;;;;;;;;;;;;5112117;27;19912;-87
2024/02/05 07:48:03;;;;;;;;;;;;;;;;;;5107205;28;20417;-83
2024/02/05 07:50:28;;;;;;;;;;;;;;;;;;5111113;28;19926;-85
2024/02/05 07:52:54;;;;;;;;;;;;;;;;;;5090232;28;19983;-87
2024/02/05 07:55:20;;;;;;;;;;;;;;;;;;5110034;28;19915;-86
2024/02/05 07:57:46;;;;;;;;;;;;;;;;;;5108752;28;19938;-87
2024/02/05 08:00:12;;;;;;;;;;;;;;;;;;5108323;28;19915;-82
2024/02/05 08:02:38;;;;;;;;;;;;;;;;;;5108764;28;19920;-87
2024/02/05 08:05:04;;;;;;;;;;;;;;;;;;5113041;28;19919;-86
2024/02/05 08:07:30;;;;;;;;;;;;;;;;;;5107499;28;19912;-85
2024/02/05 08:09:56;;;;;;;;;;;;;;;;;;5108812;28;20018;-86
2024/02/05 08:12:22;;;;;;;;;;;;;;;;;;5109754;28;20509;-83
2024/02/05 08:14:48;;;;;;;;;;;;;;;;;;5107958;28;19941;-85
2024/02/05 08:17:13;;;;;;;;;;;;;;;;;;5100181;28;19938;-88
2024/02/05 08:19:39;;;;;;;;;;;;;;;;;;5097433;28;19916;-87
2024/02/05 08:22:05;;;;;;;;;;;;;;;;;;5107571;27;20004;-88
2024/02/05 08:24:31;;;;;;;;;;;;;;;;;;5109765;28;19912;-86
2024/02/05 08:26:57;;;;;;;;;;;;;;;;;;5091201;28;19927;-89
2024/02/05 08:29:23;;;;;;;;;;;;;;;;;;5111198;27;19916;-90
2024/02/05 08:31:49;;;;;;;;;;;;;;;;;;5113084;27;19919;-87
2024/02/05 08:34:15;;;;;;;;;;;;;;;;;;5111239;28;20969;-86
2024/02/05 08:36:41;;;;;;;;;;;;;;;;;;5111342;28;19915;-88
2024/02/05 08:39:08;;;;;;;;;;;;;;;;;;5109673;28;20014;-86
2024/02/05 08:41:34;;;;;;;;;;;;;;;;;;5110401;27;20422;-86
2024/02/05 08:44:00;;;;;;;;;;;;;;;;;;5110481;28;19948;-89
2024/02/05 08:46:26;;;;;;;;;;;;;;;;;;5106871;27;19943;-86
2024/02/05 08:48:52;;;;;;;;;;;;;;;;;;5109705;28;20377;-86
2024/02/05 08:51:18;;;;;;;;;;;;;;;;;;5109974;28;19920;-87
2024/02/05 08:53:44;;;;;;;;;;;;;;;;;;5109685;28;19912;-86
2024/02/05 08:56:10;;;;;;;;;;;;;;;;;;5109331;28;19977;-87
2024/02/05 08:58:36;;;;;;;;;;;;;;;;;;5110078;27;20002;-87
2024/02/05 09:01:03;;;;;;;;;;;;;;;;;;5109932;28;19926;-91
2024/02/05 09:03:28;;;;;;;;;;;;;;;;;;5110416;28;19920;-86
2024/02/05 09:05:54;;;;;;;;;;;;;;;;;;5108837;28;19912;-88
2024/02/05 09:08:20;;;;;;;;;;;;;;;;;;5111831;28;19915;-86
2024/02/05 09:10:46;;;;;;;;;;;;;;;;;;5092654;28;20386;-85
2024/02/05 09:13:12;;;;;;;;;;;;;;;;;;5108481;28;19916;-87
2024/02/05 09:15:39;;;;;;;;;;;;;;;;;;5092086;28;20297;-84
2024/02/05 09:18:05;;;;;;;;;;;;;;;;;;5109509;28;20293;-87
2024/02/05 09:20:31;;;;;;;;;;;;;;;;;;5107561;28;19919;-87
2024/02/05 09:22:57;;;;;;;;;;;;;;;;;;5109847;28;20386;-86
2024/02/05 09:25:23;;;;;;;;;;;;;;;;;;5109606;27;20318;-87
2024/02/05 09:27:48;;;;;;;;;;;;;;;;;;5110159;28;20331;-87
2024/02/05 09:30:14;;;;;;;;;;;;;;;;;;5107945;28;19930;-90
2024/02/05 09:32:40;;;;;;;;;;;;;;;;;;5107043;28;20733;-88
2024/02/05 09:35:06;;;;;;;;;;;;;;;;;;5108132;28;20263;-88
2024/02/05 09:37:32;;;;;;;;;;;;;;;;;;5111297;28;19973;-90
2024/02/05 09:39:58;;;;;;;;;;;;;;;;;;5108377;27;19927;-87
2024/02/05 09:42:24;;;;;;;;;;;;;;;;;;5109783;28;19950;-83
2024/02/05 09:44:49;;;;;;;;;;;;;;;;;;5110412;28;19912;-88
2024/02/05 09:47:18;;;;;;;;;;;;;;;;;;5108484;28;20263;-89
2024/02/05 09:49:44;;;;;;;;;;;;;;;;;;5106273;28;19912;-84
2024/02/05 09:52:10;;;;;;;;;;;;;;;;;;5106843;28;20067;-86
2024/02/05 09:54:39;;;;;;;;;;;;;;;;;;5107388;28;19918;-83
2024/02/05 09:57:05;;;;;;;;;;;;;;;;;;5090104;28;19920;-86
2024/02/05 09:59:31;;;;;;;;;;;;;;;;;;5108097;28;20389;-88
2024/02/05 10:01:57;;;;;;;;;;;;;;;;;;5107252;28;19927;-87
2024/02/05 10:04:23;;;;;;;;;;;;;;;;;;5106979;28;19972;-90
2024/02/05 10:06:49;;;;;;;;;;;;;;;;;;5096151;28;20761;-86
2024/02/05 10:09:15;;;;;;;;;;;;;;;;;;5108666;28;19955;-86
2024/02/05 10:11:41;;;;;;;;;;;;;;;;;;5106900;28;19922;-83
2024/02/05 10:14:07;;;;;;;;;;;;;;;;;;5108321;28;19912;-89
2024/02/05 10:16:34;;;;;;;;;;;;;;;;;;5107804;28;20051;-89
2024/02/05 10:19:04;;;;;;;;;;;;;;;;;;5105060;27;19955;-84
2024/02/05 10:21:30;;;;;;;;;;;;;;;;;;5088371;28;19964;-82
2024/02/05 10:23:56;;;;;;;;;;;;;;;;;;5105617;27;19923;-85
2024/02/05 10:26:22;;;;;;;;;;;;;;;;;;5106553;27;19919;-87
2024/02/05 10:28:48;;;;;;;;;;;;;;;;;;5104290;28;20631;-82
2024/02/05 10:31:16;;;;;;;;;;;;;;;;;;5105142;28;20243;-84
2024/02/05 10:33:42;;;;;;;;;;;;;;;;;;5103048;28;19919;-84
2024/02/05 10:36:08;;;;;;;;;;;;;;;;;;5098942;28;19927;-85
2024/02/05 10:38:34;;;;;;;;;;;;;;;;;;5106520;27;19916;-85
2024/02/05 10:41:00;;;;;;;;;;;;;;;;;;5103429;28;20064;-87
2024/02/05 10:43:26;;;;;;;;;;;;;;;;;;5104115;28;19923;-86
2024/02/05 10:45:51;;;;;;;;;;;;;;;;;;5106087;27;20499;-84
2024/02/05 10:48:17;;;;;;;;;;;;;;;;;;5107511;27;19916;-83
2024/02/05 10:50:43;;;;;;;;;;;;;;;;;;5104959;28;19915;-87
2024/02/05 10:53:09;;;;;;;;;;;;;;;;;;5108009;28;20608;-89
2024/02/05 10:55:35;;;;;;;;;;;;;;;;;;5100973;28;19912;-85
2024/02/05 10:58:01;;;;;;;;;;;;;;;;;;5091570;28;19938;-87
2024/02/05 11:00:27;;;;;;;;;;;;;;;;;;5104588;28;19919;-84
2024/02/05 11:02:53;;;;;;;;;;;;;;;;;;5101552;27;20011;-87
2024/02/05 11:05:19;;;;;;;;;;;;;;;;;;5103152;28;19966;-89
2024/02/05 11:07:45;;;;;;;;;;;;;;;;;;5108250;28;19919;-88
2024/02/05 11:10:10;;;;;;;;;;;;;;;;;;5106382;27;19939;-89
2024/02/05 11:12:36;;;;;;;;;;;;;;;;;;5100647;28;19935;-87
2024/02/05 11:15:04;;;;;;;;;;;;;;;;;;5108664;28;19951;-88
2024/02/05 11:17:31;;;;;;;;;;;;;;;;;;5105475;27;20408;-86
2024/02/05 11:19:57;;;;;;;;;;;;;;;;;;5105218;27;19920;-86
2024/02/05 11:22:24;;;;;;;6.47;2.63;;;;;;;;;;5107190;28;20913;-87
2024/02/05 11:24:50;;;;;;;3.55;1.95;;;;;;;;;;5104891;27;20170;-85
2024/02/05 11:27:16;;;;;;;5.35;1.75;;;;;;;;;;5105471;28;20023;-86
2024/02/05 11:29:43;;;;;;;3.92;2.10;;;;;;;;;;5105123;28;20042;-92
2024/02/05 11:32:09;;;;;;;2.80;1.90;;;;;;;;;;5101450;28;20450;-90
2024/02/05 11:34:41;;;;;;;16.00;2.33;;;;;;;;;;5107704;28;20040;-88
2024/02/05 11:37:16;;;;;;;11.98;1.88;;;;;;;;;;5105551;27;20206;-87
2024/02/05 11:39:46;;;;;;;3.40;1.98;;;;;;;;;;5103080;28;20162;-88
2024/02/05 11:42:14;;;;;;;5.15;1.42;;;;;;;;;;5104188;28;20080;-85
2024/02/05 11:44:40;;;;;;;2.72;1.02;;;;;;;;;;5106297;28;20618;-92
2024/02/05 11:47:06;;;;;;;7.60;2.00;;;;;;;;;;5108104;28;20532;-88
2024/02/05 11:49:33;;;;;;;2.42;1.67;;;;;;;;;;5107894;28;20103;-92
2024/02/05 11:51:59;;;;;;;4.38;2.25;;;;;;;;;;5105481;28;20035;-90
2024/02/05 11:54:25;;;;;;;2.10;1.58;;;;;;;;;;5108597;28;20438;-88
2024/02/05 11:56:51;;;;;;;4.72;2.03;;;;;;;;;;5106276;28;20119;-88
2024/02/05 11:59:17;;;;;;;8.52;2.75;;;;;;;;;;5104761;28;20055;-89
2024/02/05 12:01:43;;;;;;;10.00;1.77;;;;;;;;;;5102792;28;20027;-87
2024/02/05 12:04:10;;;;;;;4.38;1.50;;;;;;;;;;5105619;28;20032;-87
2024/02/05 12:06:36;;;;;;;10.23;1.77;;;;;;;;;;5106919;28;20053;-86
2024/02/05 12:09:06;;;;;;;5.15;1.90;;;;;;;;;;5105249;28;20511;-91
2024/02/05 12:11:32;;;;;;;3.83;1.73;;;;;;;;;;5108218;28;20024;-88
2024/02/05 12:13:58;;;;;;;3.88;2.22;;;;;;;;;;5104892;28;20088;-89
2024/02/05 12:16:28;;;;;;;7.10;2.25;;;;;;;;;;5106837;28;20029;-89
2024/02/05 12:18:54;;;;;;;7.07;2.03;;;;;;;;;;5106837;28;20120;-89
2024/02/05 12:21:21;;;;;;;9.77;2.17;;;;;;;;;;5087902;28;20049;-90
2024/02/05 12:23:47;;;;;;;4.35;1.85;;;;;;;;;;5104418;28;20088;-89
2024/02/05 12:26:13;;;;;;;7.13;1.80;;;;;;;;;;5102249;28;20122;-89
2024/02/05 12:28:40;;;;;;;4.25;2.00;;;;;;;;;;5104492;28;20175;-89
2024/02/05 12:31:06;;;;;;;6.07;2.38;;;;;;;;;;5106128;28;20111;-91
2024/02/05 12:33:32;;;;;;;6.72;2.40;;;;;;;;;;5104636;28;20092;-91
2024/02/05 12:36:05;;;;;;;5.22;1.98;;;;;;;;;;5107433;28;20569;-88
2024/02/05 12:38:31;;;;;;;5.40;2.05;;;;;;;;;;5093735;28;20023;-88
2024/02/05 12:40:57;;;;;;;2.88;1.80;;;;;;;;;;5101814;28;20095;-89
2024/02/05 12:43:26;;;;;;;5.88;1.70;;;;;;;;;;5111668;28;20616;-87
2024/02/05 12:45:52;;;;;;;5.82;1.40;;;;;;;;;;5108453;28;20345;-91
2024/02/05 12:48:22;;;;;;;5.28;1.75;;;;;;;;;;5113696;28;20032;-91
2024/02/05 12:50:50;;;;;;;6.05;1.75;;;;;;;;;;5109225;28;20382;-88
2024/02/05 12:53:16;;;;;;;10.95;1.73;;;;;;;;;;5090936;28;20031;-89
2024/02/05 12:55:42;;;;;;;2.38;1.08;;;;;;;;;;5107722;28;20027;-87
2024/02/05 12:58:09;;;;;;;3.28;1.63;;;;;;;;;;5102775;28;20036;-88
2024/02/05 13:00:35;;;;;;;1.25;0.98;;;;;;;;;;5098815;28;20043;-90
2024/02/05 13:03:05;;;;;;;4.72;2.17;;;;;;;;;;5089731;28;20035;-90
2024/02/05 13:05:31;;;;;;;3.40;1.63;;;;;;;;;;5106506;28;20031;-88
2024/02/05 13:08:03;;;;;;;5.78;2.33;;;;;;;;;;5113250;28;20035;-91
2024/02/05 13:10:29;;;;;;;7.57;1.85;;;;;;;;;;5106521;28;20032;-89
2024/02/05 13:12:55;;;;;;;6.25;2.25;;;;;;;;;;5101403;28;20374;-90
2024/02/05 13:15:25;;;;;;;7.53;2.40;;;;;;;;;;5111146;28;20077;-89
2024/02/05 13:20:25;;;;;;;7.38;1.83;;;;;;;;;;5070501;28;20052;-89
2024/02/05 13:22:51;;;;;;;3.08;1.67;;;;;;;;;;5069109;28;20170;-90
2024/02/05 13:25:17;;;;;;;4.57;1.92;;;;;;;;;;5074093;28;20162;-92
2024/02/05 13:27:43;;;;;;;10.82;2.20;;;;;;;;;;5070729;28;20858;-91
2024/02/05 13:30:09;;;;;;;8.73;2.08;;;;;;;;;;5065955;28;20056;-87
2024/02/05 13:32:35;;;;;;;7.72;2.50;;;;;;;;;;5068081;28;20129;-91
2024/02/05 13:35:01;;;;;;;2.22;1.58;;;;;;;;;;5074343;28;20078;-87
2024/02/05 13:37:27;;;;;;;5.75;1.98;;;;;;;;;;5065901;28;20025;-89
2024/02/05 13:39:53;;;;;;;9.77;2.08;;;;;;;;;;5058989;28;20400;-89
2024/02/05 13:42:19;;;;;;;4.40;1.80;;;;;;;;;;5068931;28;20901;-90
2024/02/05 13:44:45;;;;;;;1.85;1.65;;;;;;;;;;5046120;28;20091;-92
2024/02/05 13:47:11;;;;;;;7.43;1.92;;;;;;;;;;5075599;28;20027;-91
2024/02/05 13:49:37;;;;;;;7.45;2.55;;;;;;;;;;5059203;28;20029;-91
2024/02/05 13:52:03;;;;;;;10.73;2.15;;;;;;;;;;5061405;28;20120;-89
2024/02/05 13:54:29;;;;;;;9.02;2.33;;;;;;;;;;5068600;28;20024;-91
2024/02/05 13:56:55;;;;;;;4.55;1.48;;;;;;;;;;5069742;28;20028;-91
2024/02/05 13:59:21;;;;;;;5.07;2.03;;;;;;;;;;5044126;28;20021;-89
2024/02/05 14:01:51;;;;;;;9.27;2.20;;;;;;;;;;5062591;28;20092;-90
2024/02/05 14:04:17;;;;;;;7.03;1.47;;;;;;;;;;5065483;28;20032;-89
2024/02/05 14:06:43;;;;;;;9.95;2.33;;;;;;;;;;5041952;28;20645;-90
2024/02/05 14:09:12;;;;;;;18.50;2.70;;;;;;;;;;5065256;28;20043;-90
2024/02/05 14:11:37;;;;;;;6.15;2.05;;;;;;;;;;5049321;28;20393;-91
2024/02/05 14:14:03;;;;;;;4.35;2.47;;;;;;;;;;5055870;28;20116;-88
2024/02/05 14:16:29;;;;;;;3.92;1.63;;;;;;;;;;5065181;28;20028;-91
2024/02/05 14:18:55;;;;;;;5.43;2.50;;;;;;;;;;5045888;28;20676;-91
2024/02/05 14:21:23;;;;;;;3.95;1.77;;;;;;;;;;5031217;28;20029;-90
2024/02/05 14:23:49;;;;;;;2.45;1.50;;;;;;;;;;5038402;28;20060;-89
2024/02/05 14:26:15;;;;;;;8.20;1.88;;;;;;;;;;5029297;28;20054;-92
2024/02/05 14:28:40;;;;;;;14.10;1.58;;;;;;;;;;5049543;28;20024;-92
2024/02/05 14:31:06;;;;;;;2.95;1.63;;;;;;;;;;5041231;28;20498;-90
2024/02/05 14:33:32;;;;;;;7.50;2.50;;;;;;;;;;5049858;28;20032;-90
2024/02/05 14:35:58;;;;;;;8.55;2.15;;;;;;;;;;5050590;28;20021;-92
2024/02/05 14:38:24;;;;;;;3.97;1.83;;;;;;;;;;5048031;28;20055;-90
2024/02/05 14:40:50;;;;;;;10.13;2.53;;;;;;;;;;5039996;28;20032;-90
2024/02/05 14:43:18;;;;;;;2.03;1.63;;;;;;;;;;5052988;28;20044;-91
2024/02/05 14:45:44;;;;;;;5.13;1.73;;;;;;;;;;5053209;28;20111;-92
2024/02/05 14:48:10;;;;;;;12.85;2.83;;;;;;;;;;5052643;28;20037;-88
2024/02/05 14:50:36;;;;;;;9.70;2.70;;;;;;;;;;5049248;28;20029;-90
2024/02/05 14:53:03;;;;;;;5.60;2.30;;;;;;;;;;5028793;28;20060;-90
2024/02/05 14:55:29;;;;;;;5.32;2.20;;;;;;;;;;5040437;28;20048;-92
2024/02/05 14:57:56;;;;;;;9.18;2.70;;;;;;;;;;5039957;28;20167;-89
2024/02/05 15:00:22;;;;;;;13.70;2.92;;;;;;;;;;5018141;28;20108;-91
2024/02/05 15:02:48;;;;;;;4.68;2.00;;;;;;;;;;5034554;28;20120;-93
2024/02/05 15:05:14;;;;;;;3.20;1.80;;;;;;;;;;5044652;28;20036;-90
2024/02/05 15:07:40;;;;;;;6.78;1.63;;;;;;;;;;5049517;28;20029;-90
2024/02/05 15:10:10;;;;;;;8.68;1.90;;;;;;;;;;5034922;28;20022;-90
2024/02/05 15:12:39;;;;;;;9.00;2.47;;;;;;;;;;5042844;28;20059;-90
2024/02/05 15:15:05;;;;;;;10.93;2.55;;;;;;;;;;5049130;28;20028;-91
2024/02/05 15:17:30;;;;;;;5.28;2.25;;;;;;;;;;5049265;28;20299;-92
2024/02/05 15:19:56;;;;;;;11.60;1.63;;;;;;;;;;5054026;28;20040;-90
2024/02/05 15:22:23;;;;;;;3.90;2.03;;;;;;;;;;5047037;28;20032;-91
2024/02/05 15:24:49;;;;;;;6.80;2.38;;;;;;;;;;5039041;28;20129;-89
2024/02/05 15:27:15;;;;;;;5.38;2.30;;;;;;;;;;5048272;28;20046;-91
2024/02/05 15:29:41;;;;;;;9.32;2.85;;;;;;;;;;5039192;28;20027;-90
2024/02/05 15:32:07;;;;;;;2.38;1.40;;;;;;;;;;5040346;28;20052;-89
2024/02/05 15:34:33;;;;;;;8.13;1.90;;;;;;;;;;5048176;28;20470;-90
2024/02/05 15:37:00;;;;;;;7.35;1.65;;;;;;;;;;5045384;28;20392;-89
2024/02/05 15:39:27;;;;;;;17.90;2.08;;;;;;;;;;5043342;28;20032;-91
2024/02/05 15:41:53;;;;;;;8.00;1.70;;;;;;;;;;5054205;28;20035;-91
2024/02/05 15:44:19;;;;;;;8.63;2.17;;;;;;;;;;5053548;28;20462;-91
2024/02/05 15:46:45;;;;;;;7.90;2.08;;;;;;;;;;5043370;28;20034;-92
2024/02/05 15:49:12;;;;;;;4.70;1.40;;;;;;;;;;5025195;28;20039;-88
2024/02/05 15:51:38;;;;;;;6.40;1.60;;;;;;;;;;5049285;28;20037;-90
2024/02/05 15:54:04;;;;;;;5.78;1.70;;;;;;;;;;5049225;28;20095;-93
2024/02/05 15:56:30;;;;;;;7.70;2.90;;;;;;;;;;5046405;28;20061;-91
2024/02/05 15:58:58;;;;;;;9.43;2.13;;;;;;;;;;5044927;28;20026;-93
2024/02/05 16:01:26;;;;;;;6.50;2.90;;;;;;;;;;5025782;28;20036;-92